To NAV CANADA Home Page Login to a new session Search on AWWS site Feedback and Comments Disclaimer Vers la page française équivalente Tips FAQ What's new on the site To the Forecasts and Observations / NOTAM section To "File a Flight Plan" website Publications and other links Update of the User's profile FIC Telephone Numbers My Weather Data Folder Route Weather Data Regional Weather Data Local Weather Data To the Forecasts and Observations / NOTAM section
Request Generated 08/28/2016 at 10:16:31 UTC . Weather information available at that time is displayed.

METAR/TAF

ROBERVAL/QC    

SPECI CYRJ 281014Z 00000KT 40SM -RA BKN040 BKN100 15/12 A3020 RMK
SC7AS1 AS TR SLP231=
METAR CYRJ 281000Z 00000KT 40SM BKN040 14/12 A3020 RMK SC7 SLP232=
METAR CYRJ 280900Z 06003KT 360V160 25SM OVC040 14/12 A3021 RMK SC8
SLP233=
METAR CYRJ 280800Z 23002KT 25SM SCT040 OVC100 14/11 A3021 RMK SC4AS4
SLP235=

*** REMARK        : Forecast period has ended; this was the last TAF issued
*** REMARQUE : La période de prévision est échue; ceci était le dernier TAF qui a été émis
TAF CYRJ 271938Z 2720/2802 VRB03KT P6SM FEW025 SCT220
RMK NXT FCST WILL BE ISSUED AT 281145Z=
Your time UTC time
Weather data provided by Environment Canada and NAV CANADA